sensor_id;sensor_type;location;lat;lon;timestamp;P1;durP1;ratioP1;P2;durP2;ratioP2
23628;SDS011;11991;57.150;-2.134;2023-12-29T00:02:17;1.00;;;0.68;;
23628;SDS011;11991;57.150;-2.134;2023-12-29T00:04:44;0.95;;;0.80;;
23628;SDS011;11991;57.150;-2.134;2023-12-29T00:07:11;0.52;;;0.45;;
23628;SDS011;11991;57.150;-2.134;2023-12-29T00:09:39;0.70;;;0.70;;
23628;SDS011;11991;57.150;-2.134;2023-12-29T00:12:08;0.68;;;0.68;;
23628;SDS011;11991;57.150;-2.134;2023-12-29T00:14:39;0.55;;;0.55;;
23628;SDS011;11991;57.150;-2.134;2023-12-29T00:17:07;0.70;;;0.60;;
23628;SDS011;11991;57.150;-2.134;2023-12-29T00:19:34;0.40;;;0.40;;
23628;SDS011;11991;57.150;-2.134;2023-12-29T00:22:01;0.60;;;0.60;;
23628;SDS011;11991;57.150;-2.134;2023-12-29T00:24:30;0.45;;;0.45;;
23628;SDS011;11991;57.150;-2.134;2023-12-29T00:27:00;0.30;;;0.30;;
23628;SDS011;11991;57.150;-2.134;2023-12-29T00:29:28;0.32;;;0.32;;
23628;SDS011;11991;57.150;-2.134;2023-12-29T00:32:00;0.38;;;0.38;;
23628;SDS011;11991;57.150;-2.134;2023-12-29T00:34:30;0.40;;;0.40;;
23628;SDS011;11991;57.150;-2.134;2023-12-29T00:36:59;0.38;;;0.38;;
23628;SDS011;11991;57.150;-2.134;2023-12-29T00:39:27;0.68;;;0.55;;
23628;SDS011;11991;57.150;-2.134;2023-12-29T00:41:58;0.50;;;0.50;;
23628;SDS011;11991;57.150;-2.134;2023-12-29T00:44:25;0.60;;;0.60;;
23628;SDS011;11991;57.150;-2.134;2023-12-29T00:46:52;0.95;;;0.68;;
23628;SDS011;11991;57.150;-2.134;2023-12-29T00:49:20;0.73;;;0.55;;
23628;SDS011;11991;57.150;-2.134;2023-12-29T00:51:48;0.60;;;0.60;;
23628;SDS011;11991;57.150;-2.134;2023-12-29T00:54:15;0.40;;;0.40;;
23628;SDS011;11991;57.150;-2.134;2023-12-29T00:56:49;0.60;;;0.60;;
23628;SDS011;11991;57.150;-2.134;2023-12-29T00:59:18;0.52;;;0.50;;
23628;SDS011;11991;57.150;-2.134;2023-12-29T01:01:46;0.50;;;0.50;;
23628;SDS011;11991;57.150;-2.134;2023-12-29T01:04:14;0.73;;;0.60;;
23628;SDS011;11991;57.150;-2.134;2023-12-29T01:06:41;0.52;;;0.50;;
23628;SDS011;11991;57.150;-2.134;2023-12-29T01:09:08;0.47;;;0.47;;
23628;SDS011;11991;57.150;-2.134;2023-12-29T01:11:36;0.57;;;0.47;;
23628;SDS011;11991;57.150;-2.134;2023-12-29T01:14:04;0.88;;;0.60;;
23628;SDS011;11991;57.150;-2.134;2023-12-29T01:16:32;0.50;;;0.50;;
23628;SDS011;11991;57.150;-2.134;2023-12-29T01:18:59;0.50;;;0.50;;
23628;SDS011;11991;57.150;-2.134;2023-12-29T01:21:27;0.40;;;0.40;;
23628;SDS011;11991;57.150;-2.134;2023-12-29T01:23:54;0.85;;;0.50;;
23628;SDS011;11991;57.150;-2.134;2023-12-29T01:26:21;0.63;;;0.50;;
23628;SDS011;11991;57.150;-2.134;2023-12-29T01:28:49;0.63;;;0.57;;
23628;SDS011;11991;57.150;-2.134;2023-12-29T01:31:16;0.45;;;0.45;;
23628;SDS011;11991;57.150;-2.134;2023-12-29T01:33:44;0.70;;;0.70;;
23628;SDS011;11991;57.150;-2.134;2023-12-29T01:36:17;1.30;;;0.57;;
23628;SDS011;11991;57.150;-2.134;2023-12-29T01:38:51;0.65;;;0.50;;
23628;SDS011;11991;57.150;-2.134;2023-12-29T01:41:22;1.75;;;0.70;;
23628;SDS011;11991;57.150;-2.134;2023-12-29T01:44:32;0.52;;;0.40;;
23628;SDS011;11991;57.150;-2.134;2023-12-29T01:46:40;0.40;;;0.40;;
23628;SDS011;11991;57.150;-2.134;2023-12-29T01:49:08;0.40;;;0.40;;
23628;SDS011;11991;57.150;-2.134;2023-12-29T01:51:35;0.38;;;0.38;;
23628;SDS011;11991;57.150;-2.134;2023-12-29T01:54:02;0.40;;;0.40;;
23628;SDS011;11991;57.150;-2.134;2023-12-29T01:56:29;0.50;;;0.40;;
23628;SDS011;11991;57.150;-2.134;2023-12-29T01:58:57;0.40;;;0.40;;
23628;SDS011;11991;57.150;-2.134;2023-12-29T02:01:36;0.30;;;0.30;;
23628;SDS011;11991;57.150;-2.134;2023-12-29T02:04:06;0.30;;;0.30;;
23628;SDS011;11991;57.150;-2.134;2023-12-29T02:06:34;0.40;;;0.40;;
23628;SDS011;11991;57.150;-2.134;2023-12-29T02:09:02;0.30;;;0.30;;
23628;SDS011;11991;57.150;-2.134;2023-12-29T02:11:31;0.30;;;0.30;;
23628;SDS011;11991;57.150;-2.134;2023-12-29T02:13:59;0.30;;;0.30;;
23628;SDS011;11991;57.150;-2.134;2023-12-29T02:16:33;0.43;;;0.32;;
23628;SDS011;11991;57.150;-2.134;2023-12-29T02:22:06;0.32;;;0.30;;
23628;SDS011;11991;57.150;-2.134;2023-12-29T02:24:35;0.30;;;0.30;;
23628;SDS011;11991;57.150;-2.134;2023-12-29T02:32:47;1.20;;;0.45;;
23628;SDS011;11991;57.150;-2.134;2023-12-29T02:35:21;0.30;;;0.30;;
23628;SDS011;11991;57.150;-2.134;2023-12-29T02:37:52;0.40;;;0.40;;
23628;SDS011;11991;57.150;-2.134;2023-12-29T02:40:21;0.30;;;0.30;;
23628;SDS011;11991;57.150;-2.134;2023-12-29T02:42:49;0.35;;;0.35;;
23628;SDS011;11991;57.150;-2.134;2023-12-29T02:45:16;0.40;;;0.38;;
23628;SDS011;11991;57.150;-2.134;2023-12-29T02:47:44;0.30;;;0.30;;
23628;SDS011;11991;57.150;-2.134;2023-12-29T02:50:12;0.38;;;0.38;;
23628;SDS011;11991;57.150;-2.134;2023-12-29T02:52:39;0.30;;;0.30;;
23628;SDS011;11991;57.150;-2.134;2023-12-29T02:55:06;0.60;;;0.40;;
23628;SDS011;11991;57.150;-2.134;2023-12-29T02:57:34;0.30;;;0.30;;
23628;SDS011;11991;57.150;-2.134;2023-12-29T03:00:01;0.40;;;0.40;;
23628;SDS011;11991;57.150;-2.134;2023-12-29T03:02:30;0.30;;;0.30;;
23628;SDS011;11991;57.150;-2.134;2023-12-29T03:04:58;0.30;;;0.30;;
23628;SDS011;11991;57.150;-2.134;2023-12-29T03:07:25;0.67;;;0.50;;
23628;SDS011;11991;57.150;-2.134;2023-12-29T03:09:52;0.80;;;0.40;;
23628;SDS011;11991;57.150;-2.134;2023-12-29T03:12:20;0.50;;;0.40;;
23628;SDS011;11991;57.150;-2.134;2023-12-29T03:14:47;0.50;;;0.50;;
23628;SDS011;11991;57.150;-2.134;2023-12-29T03:17:14;0.47;;;0.40;;
23628;SDS011;11991;57.150;-2.134;2023-12-29T03:19:41;0.40;;;0.40;;
23628;SDS011;11991;57.150;-2.134;2023-12-29T03:22:09;0.40;;;0.40;;
23628;SDS011;11991;57.150;-2.134;2023-12-29T03:24:37;0.50;;;0.50;;
23628;SDS011;11991;57.150;-2.134;2023-12-29T03:27:07;0.40;;;0.40;;
23628;SDS011;11991;57.150;-2.134;2023-12-29T03:29:34;1.47;;;0.50;;
23628;SDS011;11991;57.150;-2.134;2023-12-29T03:32:02;0.53;;;0.50;;
23628;SDS011;11991;57.150;-2.134;2023-12-29T03:34:31;0.50;;;0.50;;
23628;SDS011;11991;57.150;-2.134;2023-12-29T03:36:59;0.50;;;0.50;;
23628;SDS011;11991;57.150;-2.134;2023-12-29T03:39:26;0.50;;;0.50;;
23628;SDS011;11991;57.150;-2.134;2023-12-29T03:41:53;0.40;;;0.40;;
23628;SDS011;11991;57.150;-2.134;2023-12-29T03:44:22;0.60;;;0.60;;
23628;SDS011;11991;57.150;-2.134;2023-12-29T03:46:49;0.40;;;0.40;;
23628;SDS011;11991;57.150;-2.134;2023-12-29T03:49:18;0.93;;;0.50;;
23628;SDS011;11991;57.150;-2.134;2023-12-29T03:51:46;0.50;;;0.50;;
23628;SDS011;11991;57.150;-2.134;2023-12-29T03:54:14;0.57;;;0.53;;
23628;SDS011;11991;57.150;-2.134;2023-12-29T03:56:41;0.93;;;0.60;;
23628;SDS011;11991;57.150;-2.134;2023-12-29T03:59:08;0.50;;;0.50;;
23628;SDS011;11991;57.150;-2.134;2023-12-29T04:01:36;0.60;;;0.50;;
23628;SDS011;11991;57.150;-2.134;2023-12-29T04:04:03;0.60;;;0.60;;
23628;SDS011;11991;57.150;-2.134;2023-12-29T04:06:30;0.57;;;0.50;;
23628;SDS011;11991;57.150;-2.134;2023-12-29T04:08:58;0.60;;;0.60;;
23628;SDS011;11991;57.150;-2.134;2023-12-29T04:11:25;0.70;;;0.60;;
23628;SDS011;11991;57.150;-2.134;2023-12-29T04:13:54;0.63;;;0.60;;
23628;SDS011;11991;57.150;-2.134;2023-12-29T04:16:21;0.47;;;0.47;;
23628;SDS011;11991;57.150;-2.134;2023-12-29T04:18:48;0.50;;;0.50;;
23628;SDS011;11991;57.150;-2.134;2023-12-29T04:21:15;0.60;;;0.60;;
23628;SDS011;11991;57.150;-2.134;2023-12-29T04:23:42;0.93;;;0.50;;
23628;SDS011;11991;57.150;-2.134;2023-12-29T04:26:10;0.63;;;0.50;;
23628;SDS011;11991;57.150;-2.134;2023-12-29T04:28:37;0.60;;;0.60;;
23628;SDS011;11991;57.150;-2.134;2023-12-29T04:31:04;0.77;;;0.60;;
23628;SDS011;11991;57.150;-2.134;2023-12-29T04:33:32;0.60;;;0.60;;
23628;SDS011;11991;57.150;-2.134;2023-12-29T04:36:00;0.77;;;0.60;;
23628;SDS011;11991;57.150;-2.134;2023-12-29T04:38:27;0.63;;;0.50;;
23628;SDS011;11991;57.150;-2.134;2023-12-29T04:40:54;0.67;;;0.50;;
23628;SDS011;11991;57.150;-2.134;2023-12-29T04:43:21;0.90;;;0.60;;
23628;SDS011;11991;57.150;-2.134;2023-12-29T04:45:48;1.93;;;0.60;;
23628;SDS011;11991;57.150;-2.134;2023-12-29T04:48:15;0.70;;;0.60;;
23628;SDS011;11991;57.150;-2.134;2023-12-29T04:50:42;0.63;;;0.60;;
23628;SDS011;11991;57.150;-2.134;2023-12-29T04:53:09;0.60;;;0.50;;
23628;SDS011;11991;57.150;-2.134;2023-12-29T04:55:37;1.23;;;0.90;;
23628;SDS011;11991;57.150;-2.134;2023-12-29T04:58:04;0.70;;;0.70;;
23628;SDS011;11991;57.150;-2.134;2023-12-29T05:00:31;1.70;;;0.70;;
23628;SDS011;11991;57.150;-2.134;2023-12-29T05:02:58;0.80;;;0.50;;
23628;SDS011;11991;57.150;-2.134;2023-12-29T05:05:25;0.93;;;0.77;;
23628;SDS011;11991;57.150;-2.134;2023-12-29T05:07:53;0.97;;;0.80;;
23628;SDS011;11991;57.150;-2.134;2023-12-29T05:10:20;2.13;;;0.83;;
23628;SDS011;11991;57.150;-2.134;2023-12-29T05:12:47;1.53;;;0.80;;
23628;SDS011;11991;57.150;-2.134;2023-12-29T05:15:14;1.40;;;0.87;;
23628;SDS011;11991;57.150;-2.134;2023-12-29T05:17:41;2.57;;;0.90;;
23628;SDS011;11991;57.150;-2.134;2023-12-29T05:20:09;2.47;;;1.00;;
23628;SDS011;11991;57.150;-2.134;2023-12-29T05:22:37;0.63;;;0.63;;
23628;SDS011;11991;57.150;-2.134;2023-12-29T05:25:04;1.27;;;0.80;;
23628;SDS011;11991;57.150;-2.134;2023-12-29T05:27:31;0.83;;;0.60;;
23628;SDS011;11991;57.150;-2.134;2023-12-29T05:30:01;1.30;;;0.80;;
23628;SDS011;11991;57.150;-2.134;2023-12-29T05:32:28;2.00;;;0.93;;
23628;SDS011;11991;57.150;-2.134;2023-12-29T05:34:55;1.03;;;0.60;;
23628;SDS011;11991;57.150;-2.134;2023-12-29T05:37:23;1.00;;;0.70;;
23628;SDS011;11991;57.150;-2.134;2023-12-29T05:39:50;1.30;;;0.77;;
23628;SDS011;11991;57.150;-2.134;2023-12-29T05:42:17;1.20;;;0.87;;
23628;SDS011;11991;57.150;-2.134;2023-12-29T05:44:44;1.13;;;0.80;;
23628;SDS011;11991;57.150;-2.134;2023-12-29T05:47:11;2.27;;;0.80;;
23628;SDS011;11991;57.150;-2.134;2023-12-29T05:49:38;0.80;;;0.70;;
23628;SDS011;11991;57.150;-2.134;2023-12-29T05:52:06;1.40;;;0.90;;
23628;SDS011;11991;57.150;-2.134;2023-12-29T05:54:34;3.97;;;1.00;;
23628;SDS011;11991;57.150;-2.134;2023-12-29T05:57:01;1.63;;;0.70;;
23628;SDS011;11991;57.150;-2.134;2023-12-29T05:59:29;1.70;;;0.70;;
23628;SDS011;11991;57.150;-2.134;2023-12-29T06:01:56;3.17;;;0.80;;
23628;SDS011;11991;57.150;-2.134;2023-12-29T06:04:23;1.70;;;0.87;;
23628;SDS011;11991;57.150;-2.134;2023-12-29T06:06:52;2.03;;;0.90;;
23628;SDS011;11991;57.150;-2.134;2023-12-29T06:09:19;2.80;;;0.80;;
23628;SDS011;11991;57.150;-2.134;2023-12-29T06:11:46;3.00;;;0.80;;
23628;SDS011;11991;57.150;-2.134;2023-12-29T06:14:13;1.00;;;0.70;;
23628;SDS011;11991;57.150;-2.134;2023-12-29T06:16:41;1.13;;;0.70;;
23628;SDS011;11991;57.150;-2.134;2023-12-29T06:19:08;1.50;;;0.60;;
23628;SDS011;11991;57.150;-2.134;2023-12-29T06:21:42;2.10;;;0.70;;
23628;SDS011;11991;57.150;-2.134;2023-12-29T06:24:10;1.67;;;0.63;;
23628;SDS011;11991;57.150;-2.134;2023-12-29T06:26:40;0.50;;;0.50;;
23628;SDS011;11991;57.150;-2.134;2023-12-29T06:29:10;0.50;;;0.50;;
23628;SDS011;11991;57.150;-2.134;2023-12-29T06:31:39;1.20;;;0.80;;
23628;SDS011;11991;57.150;-2.134;2023-12-29T06:34:09;3.33;;;0.87;;
23628;SDS011;11991;57.150;-2.134;2023-12-29T06:36:36;2.00;;;0.90;;
23628;SDS011;11991;57.150;-2.134;2023-12-29T06:39:04;0.83;;;0.70;;
23628;SDS011;11991;57.150;-2.134;2023-12-29T06:41:31;1.63;;;0.60;;
23628;SDS011;11991;57.150;-2.134;2023-12-29T06:43:58;1.30;;;0.80;;
23628;SDS011;11991;57.150;-2.134;2023-12-29T06:46:25;3.10;;;1.23;;
23628;SDS011;11991;57.150;-2.134;2023-12-29T06:48:52;4.10;;;0.90;;
23628;SDS011;11991;57.150;-2.134;2023-12-29T06:51:20;3.00;;;1.00;;
23628;SDS011;11991;57.150;-2.134;2023-12-29T06:53:49;2.30;;;0.80;;
23628;SDS011;11991;57.150;-2.134;2023-12-29T06:56:17;2.93;;;1.30;;
23628;SDS011;11991;57.150;-2.134;2023-12-29T06:58:44;4.10;;;1.10;;
23628;SDS011;11991;57.150;-2.134;2023-12-29T07:01:12;1.47;;;0.70;;
23628;SDS011;11991;57.150;-2.134;2023-12-29T07:03:40;4.20;;;0.93;;
23628;SDS011;11991;57.150;-2.134;2023-12-29T07:06:07;3.40;;;1.03;;
23628;SDS011;11991;57.150;-2.134;2023-12-29T07:08:36;4.80;;;1.67;;
23628;SDS011;11991;57.150;-2.134;2023-12-29T07:11:03;2.40;;;0.80;;
23628;SDS011;11991;57.150;-2.134;2023-12-29T07:13:30;3.80;;;1.30;;
23628;SDS011;11991;57.150;-2.134;2023-12-29T07:15:57;1.30;;;0.80;;
23628;SDS011;11991;57.150;-2.134;2023-12-29T07:18:24;2.30;;;0.87;;
23628;SDS011;11991;57.150;-2.134;2023-12-29T07:20:52;2.67;;;0.90;;
23628;SDS011;11991;57.150;-2.134;2023-12-29T07:23:19;1.53;;;0.77;;
23628;SDS011;11991;57.150;-2.134;2023-12-29T07:25:47;2.63;;;0.93;;
23628;SDS011;11991;57.150;-2.134;2023-12-29T07:28:15;4.97;;;1.00;;
23628;SDS011;11991;57.150;-2.134;2023-12-29T07:30:42;1.97;;;1.10;;
23628;SDS011;11991;57.150;-2.134;2023-12-29T07:33:09;2.23;;;0.83;;
23628;SDS011;11991;57.150;-2.134;2023-12-29T07:35:36;2.70;;;0.90;;
23628;SDS011;11991;57.150;-2.134;2023-12-29T07:38:04;1.70;;;0.80;;
23628;SDS011;11991;57.150;-2.134;2023-12-29T07:40:31;1.10;;;0.60;;
23628;SDS011;11991;57.150;-2.134;2023-12-29T07:42:58;2.10;;;1.63;;
23628;SDS011;11991;57.150;-2.134;2023-12-29T07:45:25;1.37;;;0.60;;
23628;SDS011;11991;57.150;-2.134;2023-12-29T07:47:52;0.97;;;0.53;;
23628;SDS011;11991;57.150;-2.134;2023-12-29T07:50:20;2.10;;;0.90;;
23628;SDS011;11991;57.150;-2.134;2023-12-29T07:52:47;2.50;;;0.60;;
23628;SDS011;11991;57.150;-2.134;2023-12-29T07:55:14;0.67;;;0.50;;
23628;SDS011;11991;57.150;-2.134;2023-12-29T07:57:45;1.53;;;0.67;;
23628;SDS011;11991;57.150;-2.134;2023-12-29T08:00:16;1.00;;;0.60;;
23628;SDS011;11991;57.150;-2.134;2023-12-29T08:02:43;1.63;;;0.80;;
23628;SDS011;11991;57.150;-2.134;2023-12-29T08:05:11;0.87;;;0.47;;
23628;SDS011;11991;57.150;-2.134;2023-12-29T08:07:38;1.03;;;0.70;;
23628;SDS011;11991;57.150;-2.134;2023-12-29T08:10:06;3.40;;;1.40;;
23628;SDS011;11991;57.150;-2.134;2023-12-29T08:12:34;3.33;;;1.10;;
23628;SDS011;11991;57.150;-2.134;2023-12-29T08:15:02;3.20;;;1.20;;
23628;SDS011;11991;57.150;-2.134;2023-12-29T08:17:30;3.70;;;1.50;;
23628;SDS011;11991;57.150;-2.134;2023-12-29T08:19:58;3.30;;;1.43;;
23628;SDS011;11991;57.150;-2.134;2023-12-29T08:22:27;2.37;;;1.00;;
23628;SDS011;11991;57.150;-2.134;2023-12-29T08:24:56;2.17;;;0.90;;
23628;SDS011;11991;57.150;-2.134;2023-12-29T08:27:24;2.13;;;1.00;;
23628;SDS011;11991;57.150;-2.134;2023-12-29T08:29:54;2.53;;;1.10;;
23628;SDS011;11991;57.150;-2.134;2023-12-29T08:32:21;2.63;;;0.90;;
23628;SDS011;11991;57.150;-2.134;2023-12-29T08:34:49;5.57;;;1.10;;
23628;SDS011;11991;57.150;-2.134;2023-12-29T08:37:16;1.80;;;1.00;;
23628;SDS011;11991;57.150;-2.134;2023-12-29T08:39:47;3.77;;;1.13;;
23628;SDS011;11991;57.150;-2.134;2023-12-29T08:42:15;3.43;;;1.20;;
23628;SDS011;11991;57.150;-2.134;2023-12-29T08:44:42;1.70;;;0.80;;
23628;SDS011;11991;57.150;-2.134;2023-12-29T08:47:10;5.10;;;0.90;;
23628;SDS011;11991;57.150;-2.134;2023-12-29T08:49:37;2.40;;;0.97;;
23628;SDS011;11991;57.150;-2.134;2023-12-29T08:52:05;3.10;;;1.00;;
23628;SDS011;11991;57.150;-2.134;2023-12-29T08:54:32;2.20;;;0.90;;
23628;SDS011;11991;57.150;-2.134;2023-12-29T08:57:00;2.17;;;1.10;;
23628;SDS011;11991;57.150;-2.134;2023-12-29T08:59:27;4.00;;;0.90;;
23628;SDS011;11991;57.150;-2.134;2023-12-29T09:01:54;1.53;;;0.90;;
23628;SDS011;11991;57.150;-2.134;2023-12-29T09:04:22;2.40;;;1.10;;
23628;SDS011;11991;57.150;-2.134;2023-12-29T09:06:49;2.23;;;0.93;;
23628;SDS011;11991;57.150;-2.134;2023-12-29T09:09:16;3.00;;;1.00;;
23628;SDS011;11991;57.150;-2.134;2023-12-29T09:11:44;1.53;;;0.77;;
23628;SDS011;11991;57.150;-2.134;2023-12-29T09:14:12;1.37;;;0.77;;
23628;SDS011;11991;57.150;-2.134;2023-12-29T09:16:40;0.90;;;0.87;;
23628;SDS011;11991;57.150;-2.134;2023-12-29T09:19:10;7.57;;;1.60;;
23628;SDS011;11991;57.150;-2.134;2023-12-29T09:21:40;1.93;;;0.87;;
23628;SDS011;11991;57.150;-2.134;2023-12-29T09:24:07;4.50;;;1.00;;
23628;SDS011;11991;57.150;-2.134;2023-12-29T09:26:35;0.87;;;0.77;;
23628;SDS011;11991;57.150;-2.134;2023-12-29T09:29:02;2.47;;;0.93;;
23628;SDS011;11991;57.150;-2.134;2023-12-29T09:31:29;1.90;;;0.60;;
23628;SDS011;11991;57.150;-2.134;2023-12-29T09:33:56;3.23;;;1.00;;
23628;SDS011;11991;57.150;-2.134;2023-12-29T09:36:23;3.47;;;0.90;;
23628;SDS011;11991;57.150;-2.134;2023-12-29T09:38:51;3.07;;;1.53;;
23628;SDS011;11991;57.150;-2.134;2023-12-29T09:41:18;3.73;;;0.90;;
23628;SDS011;11991;57.150;-2.134;2023-12-29T09:43:50;1.53;;;0.80;;
23628;SDS011;11991;57.150;-2.134;2023-12-29T09:46:17;1.47;;;0.70;;
23628;SDS011;11991;57.150;-2.134;2023-12-29T09:48:48;4.67;;;1.30;;
23628;SDS011;11991;57.150;-2.134;2023-12-29T09:51:19;1.43;;;0.70;;
23628;SDS011;11991;57.150;-2.134;2023-12-29T09:53:50;2.93;;;1.13;;
23628;SDS011;11991;57.150;-2.134;2023-12-29T09:56:19;2.47;;;1.10;;
23628;SDS011;11991;57.150;-2.134;2023-12-29T09:58:47;2.30;;;0.70;;
23628;SDS011;11991;57.150;-2.134;2023-12-29T10:01:15;3.93;;;0.97;;
23628;SDS011;11991;57.150;-2.134;2023-12-29T10:03:46;1.37;;;0.90;;
23628;SDS011;11991;57.150;-2.134;2023-12-29T10:06:16;0.90;;;0.67;;
23628;SDS011;11991;57.150;-2.134;2023-12-29T10:09:03;2.90;;;1.10;;
23628;SDS011;11991;57.150;-2.134;2023-12-29T10:11:34;1.40;;;0.63;;
23628;SDS011;11991;57.150;-2.134;2023-12-29T10:14:10;1.97;;;0.93;;
23628;SDS011;11991;57.150;-2.134;2023-12-29T10:20:10;0.93;;;0.70;;
23628;SDS011;11991;57.150;-2.134;2023-12-29T10:22:54;4.30;;;0.97;;
23628;SDS011;11991;57.150;-2.134;2023-12-29T10:25:30;2.17;;;0.90;;
23628;SDS011;11991;57.150;-2.134;2023-12-29T10:27:58;2.37;;;0.87;;
23628;SDS011;11991;57.150;-2.134;2023-12-29T10:30:25;1.37;;;0.70;;
23628;SDS011;11991;57.150;-2.134;2023-12-29T10:33:00;1.80;;;0.70;;
23628;SDS011;11991;57.150;-2.134;2023-12-29T10:35:30;1.87;;;0.93;;
23628;SDS011;11991;57.150;-2.134;2023-12-29T10:38:12;1.97;;;0.70;;
23628;SDS011;11991;57.150;-2.134;2023-12-29T10:40:40;5.93;;;2.47;;
23628;SDS011;11991;57.150;-2.134;2023-12-29T10:43:09;5.17;;;1.23;;
23628;SDS011;11991;57.150;-2.134;2023-12-29T10:45:37;1.73;;;0.80;;
23628;SDS011;11991;57.150;-2.134;2023-12-29T10:48:04;2.30;;;1.00;;
23628;SDS011;11991;57.150;-2.134;2023-12-29T10:50:42;3.77;;;1.10;;
23628;SDS011;11991;57.150;-2.134;2023-12-29T10:53:13;1.03;;;0.70;;
23628;SDS011;11991;57.150;-2.134;2023-12-29T10:55:43;3.27;;;1.10;;
23628;SDS011;11991;57.150;-2.134;2023-12-29T10:58:10;2.10;;;1.13;;
23628;SDS011;11991;57.150;-2.134;2023-12-29T11:00:38;2.47;;;0.93;;
23628;SDS011;11991;57.150;-2.134;2023-12-29T11:03:05;4.03;;;1.20;;
23628;SDS011;11991;57.150;-2.134;2023-12-29T11:05:33;2.90;;;1.20;;
23628;SDS011;11991;57.150;-2.134;2023-12-29T11:08:01;2.07;;;1.17;;
23628;SDS011;11991;57.150;-2.134;2023-12-29T11:10:28;5.53;;;1.50;;
23628;SDS011;11991;57.150;-2.134;2023-12-29T11:12:56;3.93;;;1.50;;
23628;SDS011;11991;57.150;-2.134;2023-12-29T11:15:25;4.10;;;1.17;;
23628;SDS011;11991;57.150;-2.134;2023-12-29T11:17:53;1.87;;;0.90;;
23628;SDS011;11991;57.150;-2.134;2023-12-29T11:20:23;2.93;;;1.00;;
23628;SDS011;11991;57.150;-2.134;2023-12-29T11:22:53;4.33;;;1.30;;
23628;SDS011;11991;57.150;-2.134;2023-12-29T11:25:20;3.87;;;1.10;;
23628;SDS011;11991;57.150;-2.134;2023-12-29T11:27:48;6.37;;;1.43;;
23628;SDS011;11991;57.150;-2.134;2023-12-29T11:30:15;2.27;;;1.00;;
23628;SDS011;11991;57.150;-2.134;2023-12-29T11:35:59;3.00;;;1.00;;
23628;SDS011;11991;57.150;-2.134;2023-12-29T11:38:59;5.70;;;1.13;;
23628;SDS011;11991;57.150;-2.134;2023-12-29T11:41:47;1.60;;;1.00;;
23628;SDS011;11991;57.150;-2.134;2023-12-29T11:44:27;1.93;;;0.93;;
23628;SDS011;11991;57.150;-2.134;2023-12-29T11:46:55;4.80;;;1.47;;
23628;SDS011;11991;57.150;-2.134;2023-12-29T11:49:26;2.53;;;0.97;;
23628;SDS011;11991;57.150;-2.134;2023-12-29T11:51:53;2.23;;;1.20;;
23628;SDS011;11991;57.150;-2.134;2023-12-29T11:54:24;3.73;;;1.10;;
23628;SDS011;11991;57.150;-2.134;2023-12-29T11:56:55;3.23;;;1.20;;
23628;SDS011;11991;57.150;-2.134;2023-12-29T11:59:23;2.53;;;1.13;;
23628;SDS011;11991;57.150;-2.134;2023-12-29T12:01:52;2.70;;;1.07;;
23628;SDS011;11991;57.150;-2.134;2023-12-29T12:04:37;3.57;;;1.03;;
23628;SDS011;11991;57.150;-2.134;2023-12-29T12:12:50;1.43;;;0.70;;
23628;SDS011;11991;57.150;-2.134;2023-12-29T12:18:10;2.77;;;1.27;;
23628;SDS011;11991;57.150;-2.134;2023-12-29T12:20:38;2.43;;;0.80;;
23628;SDS011;11991;57.150;-2.134;2023-12-29T12:23:15;3.57;;;1.20;;
23628;SDS011;11991;57.150;-2.134;2023-12-29T12:25:44;3.13;;;1.13;;
23628;SDS011;11991;57.150;-2.134;2023-12-29T12:28:15;2.83;;;1.40;;
23628;SDS011;11991;57.150;-2.134;2023-12-29T12:30:43;4.83;;;1.47;;
23628;SDS011;11991;57.150;-2.134;2023-12-29T12:33:10;5.27;;;2.17;;
23628;SDS011;11991;57.150;-2.134;2023-12-29T12:35:41;5.50;;;1.67;;
23628;SDS011;11991;57.150;-2.134;2023-12-29T12:40:37;4.77;;;1.30;;
23628;SDS011;11991;57.150;-2.134;2023-12-29T12:43:04;6.10;;;1.70;;
23628;SDS011;11991;57.150;-2.134;2023-12-29T12:45:33;5.93;;;1.70;;
23628;SDS011;11991;57.150;-2.134;2023-12-29T12:48:30;2.30;;;1.20;;
23628;SDS011;11991;57.150;-2.134;2023-12-29T12:51:07;9.10;;;1.90;;
23628;SDS011;11991;57.150;-2.134;2023-12-29T12:53:34;4.73;;;1.40;;
23628;SDS011;11991;57.150;-2.134;2023-12-29T12:56:06;5.87;;;1.67;;
23628;SDS011;11991;57.150;-2.134;2023-12-29T12:58:34;5.53;;;1.53;;
23628;SDS011;11991;57.150;-2.134;2023-12-29T13:01:01;4.03;;;1.23;;
23628;SDS011;11991;57.150;-2.134;2023-12-29T13:03:29;5.57;;;2.03;;
23628;SDS011;11991;57.150;-2.134;2023-12-29T13:05:58;4.17;;;1.50;;
23628;SDS011;11991;57.150;-2.134;2023-12-29T13:08:27;5.87;;;1.67;;
23628;SDS011;11991;57.150;-2.134;2023-12-29T13:11:03;4.37;;;1.80;;
23628;SDS011;11991;57.150;-2.134;2023-12-29T13:13:41;5.10;;;1.53;;
23628;SDS011;11991;57.150;-2.134;2023-12-29T13:16:10;2.63;;;1.10;;
23628;SDS011;11991;57.150;-2.134;2023-12-29T13:18:37;5.23;;;1.93;;
23628;SDS011;11991;57.150;-2.134;2023-12-29T13:21:05;6.63;;;1.73;;
23628;SDS011;11991;57.150;-2.134;2023-12-29T13:23:34;5.67;;;1.67;;
23628;SDS011;11991;57.150;-2.134;2023-12-29T13:26:04;5.00;;;1.53;;
23628;SDS011;11991;57.150;-2.134;2023-12-29T13:28:34;4.07;;;1.43;;
23628;SDS011;11991;57.150;-2.134;2023-12-29T13:31:05;5.27;;;1.53;;
23628;SDS011;11991;57.150;-2.134;2023-12-29T13:36:24;2.57;;;1.20;;
23628;SDS011;11991;57.150;-2.134;2023-12-29T13:42:07;6.30;;;1.23;;
23628;SDS011;11991;57.150;-2.134;2023-12-29T13:44:38;3.70;;;1.50;;
23628;SDS011;11991;57.150;-2.134;2023-12-29T13:47:08;2.73;;;1.20;;
23628;SDS011;11991;57.150;-2.134;2023-12-29T13:49:36;5.47;;;1.27;;
23628;SDS011;11991;57.150;-2.134;2023-12-29T13:52:04;3.93;;;1.40;;
23628;SDS011;11991;57.150;-2.134;2023-12-29T13:54:40;4.30;;;1.30;;
23628;SDS011;11991;57.150;-2.134;2023-12-29T13:57:09;6.07;;;1.20;;
23628;SDS011;11991;57.150;-2.134;2023-12-29T13:59:37;5.90;;;1.40;;
23628;SDS011;11991;57.150;-2.134;2023-12-29T14:02:23;3.77;;;1.30;;
23628;SDS011;11991;57.150;-2.134;2023-12-29T14:05:10;3.53;;;1.27;;
23628;SDS011;11991;57.150;-2.134;2023-12-29T14:07:42;8.13;;;1.43;;
23628;SDS011;11991;57.150;-2.134;2023-12-29T14:10:41;4.78;;;1.20;;
23628;SDS011;11991;57.150;-2.134;2023-12-29T14:13:09;4.80;;;1.20;;
23628;SDS011;11991;57.150;-2.134;2023-12-29T14:15:44;5.33;;;1.40;;
23628;SDS011;11991;57.150;-2.134;2023-12-29T14:21:50;5.87;;;1.60;;
23628;SDS011;11991;57.150;-2.134;2023-12-29T14:26:39;5.87;;;1.40;;
23628;SDS011;11991;57.150;-2.134;2023-12-29T14:29:11;2.97;;;1.30;;
23628;SDS011;11991;57.150;-2.134;2023-12-29T14:31:39;3.13;;;1.20;;
23628;SDS011;11991;57.150;-2.134;2023-12-29T14:34:08;2.43;;;1.13;;
23628;SDS011;11991;57.150;-2.134;2023-12-29T14:36:37;3.53;;;1.57;;
23628;SDS011;11991;57.150;-2.134;2023-12-29T14:39:06;2.77;;;1.80;;
23628;SDS011;11991;57.150;-2.134;2023-12-29T14:41:33;3.80;;;1.30;;
23628;SDS011;11991;57.150;-2.134;2023-12-29T14:44:01;6.00;;;1.33;;
23628;SDS011;11991;57.150;-2.134;2023-12-29T14:46:28;3.33;;;1.47;;
23628;SDS011;11991;57.150;-2.134;2023-12-29T14:48:56;3.80;;;1.87;;
23628;SDS011;11991;57.150;-2.134;2023-12-29T14:51:25;4.23;;;1.60;;
23628;SDS011;11991;57.150;-2.134;2023-12-29T14:53:52;3.87;;;1.20;;
23628;SDS011;11991;57.150;-2.134;2023-12-29T14:56:19;6.93;;;2.40;;
23628;SDS011;11991;57.150;-2.134;2023-12-29T14:58:46;2.60;;;0.90;;
23628;SDS011;11991;57.150;-2.134;2023-12-29T15:01:13;7.80;;;1.70;;
23628;SDS011;11991;57.150;-2.134;2023-12-29T15:03:41;5.53;;;1.17;;
23628;SDS011;11991;57.150;-2.134;2023-12-29T15:06:08;2.50;;;1.03;;
23628;SDS011;11991;57.150;-2.134;2023-12-29T15:08:35;5.53;;;1.57;;
23628;SDS011;11991;57.150;-2.134;2023-12-29T15:11:04;3.03;;;1.23;;
23628;SDS011;11991;57.150;-2.134;2023-12-29T15:13:32;3.23;;;1.47;;
23628;SDS011;11991;57.150;-2.134;2023-12-29T15:16:00;1.87;;;1.00;;
23628;SDS011;11991;57.150;-2.134;2023-12-29T15:18:28;3.30;;;1.03;;
23628;SDS011;11991;57.150;-2.134;2023-12-29T15:20:58;4.47;;;1.20;;
23628;SDS011;11991;57.150;-2.134;2023-12-29T15:23:25;4.30;;;1.33;;